Time;durP1;ratioP1;P1;durP2;ratioP2;P2;SDS_P1;SDS_P2;PMS_P1;PMS_P2;Temp;Humidity;BMP_temperature;BMP_pressure;BME280_temperature;BME280_humidity;BME280_pressure;Samples;Min_cycle;Max_cycle;Signal;HPM_P1;HPM_P2
2020/12/18 00:01:05;;;;;;;26.77;12.40;;;;;;;2.20;85.50;99772.72;4956807;29;20050;-61
2020/12/18 00:03:31;;;;;;;23.77;12.13;;;;;;;2.21;86.23;99770.22;4969321;28;20341;-61
2020/12/18 00:05:56;;;;;;;24.60;12.67;;;;;;;2.20;85.54;99777.78;4967841;28;20118;-61
2020/12/18 00:08:22;;;;;;;26.33;12.60;;;;;;;2.16;86.05;99770.88;4966444;28;20039;-61
2020/12/18 00:10:47;;;;;;;26.23;12.40;;;;;;;2.14;85.76;99759.84;4956848;29;20097;-61
2020/12/18 00:13:13;;;;;;;24.47;13.30;;;;;;;2.16;86.13;99764.16;4958096;28;20051;-61
2020/12/18 00:15:38;;;;;;;24.00;12.00;;;;;;;2.16;86.17;99756.56;4957436;29;20039;-61
2020/12/18 00:18:03;;;;;;;29.60;12.73;;;;;;;2.20;86.09;99755.00;4956953;28;20062;-60
2020/12/18 00:20:29;;;;;;;22.93;11.90;;;;;;;2.22;85.95;99748.31;4957496;29;20027;-61
2020/12/18 00:22:54;;;;;;;26.13;14.13;;;;;;;2.16;85.74;99755.72;4955885;28;20106;-61
2020/12/18 00:25:20;;;;;;;19.93;12.63;;;;;;;2.12;86.23;99753.91;4956929;29;20142;-61
2020/12/18 00:27:46;;;;;;;25.90;13.13;;;;;;;1.90;86.89;99759.91;4955797;28;20043;-61
2020/12/18 00:30:13;;;;;;;25.77;12.70;;;;;;;1.81;87.39;99752.88;4957013;29;20098;-61
2020/12/18 00:32:42;;;;;;;25.93;12.53;;;;;;;1.88;87.99;99756.47;4947681;28;20027;-61
2020/12/18 00:35:10;;;;;;;27.10;13.03;;;;;;;1.96;88.00;99767.69;4947802;29;20034;-61
2020/12/18 00:37:36;;;;;;;23.43;12.70;;;;;;;1.96;87.84;99756.72;4955972;28;20062;-61
2020/12/18 00:40:07;;;;;;;22.53;12.10;;;;;;;2.01;87.22;99758.59;4956628;29;20050;-61
2020/12/18 00:42:33;;;;;;;23.10;11.77;;;;;;;1.95;87.22;99770.19;4950244;28;20123;-61
2020/12/18 00:44:59;;;;;;;21.57;11.40;;;;;;;1.98;87.18;99767.75;4937069;29;20118;-60
2020/12/18 00:47:24;;;;;;;23.43;11.67;;;;;;;2.00;87.62;99783.81;4939842;28;20034;-61
2020/12/18 00:49:50;;;;;;;26.37;13.97;;;;;;;2.00;86.82;99789.75;4956807;28;20330;-61
2020/12/18 00:52:15;;;;;;;29.63;12.97;;;;;;;2.05;87.22;99793.28;4954249;28;20031;-61
2020/12/18 00:54:40;;;;;;;28.37;12.83;;;;;;;2.05;87.62;99802.53;4957205;29;20027;-61
2020/12/18 00:57:06;;;;;;;25.90;13.20;;;;;;;2.10;87.72;99788.38;4954626;29;20042;-60
2020/12/18 00:59:31;;;;;;;21.60;11.77;;;;;;;2.12;86.95;99790.13;4956153;28;20465;-60
2020/12/18 01:02:01;;;;;;;26.63;13.30;;;;;;;2.18;87.23;99794.56;4954483;29;20039;-61
2020/12/18 01:04:26;;;;;;;21.97;12.20;;;;;;;2.15;86.54;99804.56;4955279;28;20035;-62
2020/12/18 01:06:55;;;;;;;25.33;12.33;;;;;;;2.24;86.69;99798.16;4943578;28;20039;-62
2020/12/18 01:09:22;;;;;;;28.20;12.67;;;;;;;2.23;86.34;99800.63;4936406;29;20042;-61
2020/12/18 01:11:48;;;;;;;29.80;11.77;;;;;;;2.20;86.44;99798.88;4946772;28;20023;-61
2020/12/18 01:14:14;;;;;;;24.90;12.63;;;;;;;2.23;86.43;99798.09;4969625;28;20125;-61
2020/12/18 01:16:40;;;;;;;21.23;12.07;;;;;;;2.23;86.24;99798.97;4974381;28;20038;-62
2020/12/18 01:19:05;;;;;;;23.17;11.67;;;;;;;2.20;85.89;99796.34;4975840;28;20049;-61
2020/12/18 01:21:32;;;;;;;22.93;11.10;;;;;;;2.12;86.41;99792.66;4936320;28;20055;-61
2020/12/18 01:23:57;;;;;;;23.40;11.30;;;;;;;2.11;86.05;99795.16;4949655;28;20459;-61
2020/12/18 01:26:23;;;;;;;28.53;13.37;;;;;;;1.99;86.45;99794.75;4975098;28;20089;-61
2020/12/18 01:28:48;;;;;;;25.30;12.40;;;;;;;2.03;87.19;99805.03;4974664;28;20026;-61
2020/12/18 01:31:14;;;;;;;27.47;12.70;;;;;;;2.05;87.34;99798.34;4975653;28;20097;-62
2020/12/18 01:33:39;;;;;;;24.83;12.63;;;;;;;1.97;87.29;99801.41;4968707;28;20028;-61
2020/12/18 01:36:05;;;;;;;25.80;13.03;;;;;;;1.98;86.92;99800.63;4945371;29;20590;-61
2020/12/18 01:38:31;;;;;;;28.40;12.83;;;;;;;2.00;87.32;99801.53;4940919;28;20040;-62
2020/12/18 01:40:57;;;;;;;25.40;12.40;;;;;;;1.95;87.45;99801.41;4976416;28;20416;-61
2020/12/18 01:43:22;;;;;;;24.97;12.87;;;;;;;1.95;87.24;99803.06;4974307;28;20030;-61
2020/12/18 01:45:48;;;;;;;28.73;12.30;;;;;;;1.91;87.48;99794.47;4974797;28;20341;-61
2020/12/18 01:48:14;;;;;;;25.50;14.03;;;;;;;1.93;87.69;99800.47;4974228;28;20034;-61
2020/12/18 01:50:39;;;;;;;26.23;12.93;;;;;;;1.93;87.75;99792.88;4951126;28;20443;-61
2020/12/18 01:53:05;;;;;;;22.97;12.13;;;;;;;1.95;87.65;99798.00;4952295;28;20032;-61
2020/12/18 01:55:31;;;;;;;25.23;12.40;;;;;;;1.95;88.25;99791.28;4942150;28;20056;-60
2020/12/18 01:57:57;;;;;;;27.43;12.83;;;;;;;2.00;87.73;99791.41;4941429;28;20035;-60
2020/12/18 02:00:26;;;;;;;21.87;10.97;;;;;;;2.05;87.73;99792.41;4936551;28;20416;-61
2020/12/18 02:02:53;;;;;;;23.63;12.13;;;;;;;2.02;87.29;99792.31;4937180;29;20028;-60
2020/12/18 02:05:19;;;;;;;19.87;10.63;;;;;;;2.01;87.28;99800.72;4939535;28;20076;-61
2020/12/18 02:07:56;;;;;;;23.67;11.90;;;;;;;2.03;87.46;99805.03;4939847;29;20553;-61
2020/12/18 02:10:23;;;;;;;26.30;12.33;;;;;;;1.90;87.00;99800.38;4969951;28;20042;-61
2020/12/18 02:12:48;;;;;;;22.70;11.97;;;;;;;1.88;87.38;99798.56;4978136;28;20030;-61
2020/12/18 02:15:15;;;;;;;33.37;12.47;;;;;;;1.77;88.30;99800.75;4977897;28;20042;-60
2020/12/18 02:17:41;;;;;;;30.23;13.83;;;;;;;1.67;88.21;99798.69;4978437;28;20142;-61
2020/12/18 02:20:06;;;;;;;31.20;14.90;;;;;;;1.60;88.63;99792.59;4969178;28;20512;-61
2020/12/18 02:22:32;;;;;;;30.27;13.40;;;;;;;1.67;88.54;99802.09;4959296;29;20337;-60
2020/12/18 02:25:03;;;;;;;29.50;12.93;;;;;;;1.74;88.76;99805.72;4967433;28;20070;-60
2020/12/18 02:27:29;;;;;;;29.37;14.17;;;;;;;1.65;88.57;99797.81;4978191;28;20030;-61
2020/12/18 02:29:55;;;;;;;29.13;12.60;;;;;;;1.59;88.94;99795.91;4977433;28;20085;-61
2020/12/18 02:32:21;;;;;;;31.80;14.07;;;;;;;1.56;89.80;99805.06;4978314;28;20034;-61
2020/12/18 02:34:47;;;;;;;25.67;13.97;;;;;;;1.55;89.57;99798.28;4976851;28;20030;-61
2020/12/18 02:37:12;;;;;;;21.60;10.80;;;;;;;1.47;89.56;99790.44;4978465;28;20034;-61
2020/12/18 02:39:38;;;;;;;22.63;10.90;;;;;;;1.52;89.32;99799.03;4977042;28;20066;-61
2020/12/18 02:42:04;;;;;;;25.03;11.77;;;;;;;1.52;89.02;99794.00;4978334;28;20054;-61
2020/12/18 02:44:29;;;;;;;25.10;12.33;;;;;;;1.52;89.51;99796.50;4976582;28;20031;-61
2020/12/18 02:46:55;;;;;;;20.63;10.43;;;;;;;1.41;89.02;99800.31;4978919;28;20038;-61
2020/12/18 02:49:20;;;;;;;18.53;11.07;;;;;;;1.42;89.14;99796.97;4975035;28;20088;-61
2020/12/18 02:51:45;;;;;;;21.37;10.63;;;;;;;1.40;89.23;99803.63;4978600;28;20031;-60
2020/12/18 02:54:11;;;;;;;16.47;9.23;;;;;;;1.53;88.90;99800.75;4977179;28;20041;-60
2020/12/18 02:56:37;;;;;;;23.13;11.00;;;;;;;1.58;88.34;99798.38;4977874;28;20452;-60
2020/12/18 02:59:03;;;;;;;23.73;11.40;;;;;;;1.58;88.60;99796.72;4977055;28;20027;-60
2020/12/18 03:01:29;;;;;;;21.77;11.20;;;;;;;1.64;89.32;99802.00;4945774;28;20054;-60
2020/12/18 03:03:54;;;;;;;22.47;11.67;;;;;;;1.63;88.61;99804.47;4938812;29;20032;-60
2020/12/18 03:06:19;;;;;;;23.73;11.00;;;;;;;1.53;88.87;99800.75;4952221;28;20118;-60
2020/12/18 03:08:45;;;;;;;20.77;10.07;;;;;;;1.47;89.24;99799.69;4958180;29;20027;-60
2020/12/18 03:11:11;;;;;;;22.63;11.87;;;;;;;1.51;89.55;99804.91;4961921;28;20042;-61
2020/12/18 03:13:37;;;;;;;20.87;10.47;;;;;;;1.54;89.19;99797.41;4977176;28;20065;-60
2020/12/18 03:16:02;;;;;;;19.47;9.97;;;;;;;1.67;89.39;99803.75;4975515;28;20035;-60
2020/12/18 03:18:28;;;;;;;20.90;10.60;;;;;;;1.66;88.65;99797.84;4977819;28;20066;-60
2020/12/18 03:20:53;;;;;;;20.87;10.40;;;;;;;1.68;88.16;99800.44;4960858;28;20461;-60
2020/12/18 03:23:19;;;;;;;19.30;10.03;;;;;;;1.70;88.22;99793.75;4961908;28;20038;-61
2020/12/18 03:25:44;;;;;;;24.63;11.00;;;;;;;1.66;88.24;99799.50;4976839;28;20052;-59
2020/12/18 03:28:09;;;;;;;21.97;10.60;;;;;;;1.66;88.04;99787.72;4967252;28;20109;-62
2020/12/18 03:30:35;;;;;;;22.90;10.93;;;;;;;1.67;88.06;99791.13;4958460;29;20415;-61
2020/12/18 03:33:01;;;;;;;20.70;11.00;;;;;;;1.62;87.91;99795.16;4958393;29;20062;-62
2020/12/18 03:35:27;;;;;;;20.83;10.10;;;;;;;1.63;88.52;99786.78;4958645;28;20043;-62
2020/12/18 03:37:53;;;;;;;19.93;9.67;;;;;;;1.53;87.99;99790.63;4958651;29;20027;-61
2020/12/18 03:40:18;;;;;;;26.17;10.90;;;;;;;1.44;88.26;99790.34;4958111;29;20023;-62
2020/12/18 03:42:44;;;;;;;18.93;9.27;;;;;;;1.48;89.30;99788.78;4958150;29;20043;-62
2020/12/18 03:45:09;;;;;;;16.17;10.13;;;;;;;1.49;88.66;99788.81;4958627;29;20066;-61
2020/12/18 03:47:35;;;;;;;20.47;10.73;;;;;;;1.55;88.83;99786.50;4958338;29;20138;-60
2020/12/18 03:50:01;;;;;;;24.23;10.57;;;;;;;1.51;89.07;99787.22;4958124;29;20525;-62
2020/12/18 03:52:28;;;;;;;18.53;10.50;;;;;;;1.58;88.83;99790.78;4958392;29;20050;-62
2020/12/18 03:54:54;;;;;;;21.33;10.63;;;;;;;1.50;88.70;99789.66;4958135;29;20063;-61
2020/12/18 03:57:19;;;;;;;19.53;10.17;;;;;;;1.51;88.92;99794.78;4958003;29;20480;-61
2020/12/18 03:59:45;;;;;;;23.73;10.23;;;;;;;1.55;88.74;99794.09;4958137;29;20033;-62
2020/12/18 04:02:10;;;;;;;23.53;10.23;;;;;;;1.58;89.11;99790.78;4957968;29;20046;-62
2020/12/18 04:04:35;;;;;;;22.13;11.30;;;;;;;1.53;89.03;99790.63;4958039;29;20075;-61
2020/12/18 04:07:01;;;;;;;24.30;11.33;;;;;;;1.55;89.14;99799.16;4941170;29;20031;-62
2020/12/18 04:09:26;;;;;;;23.23;11.43;;;;;;;1.56;89.20;99802.53;4957835;29;20046;-61
2020/12/18 04:11:52;;;;;;;21.30;11.00;;;;;;;1.61;89.15;99801.88;4958096;29;20456;-62
2020/12/18 04:14:17;;;;;;;23.20;9.90;;;;;;;1.62;89.22;99795.16;4957478;29;20130;-62
2020/12/18 04:16:43;;;;;;;21.17;9.93;;;;;;;1.66;88.99;99790.25;4957724;29;20050;-61
2020/12/18 04:19:08;;;;;;;21.13;9.90;;;;;;;1.66;88.78;99791.91;4957666;29;20102;-61
2020/12/18 04:21:33;;;;;;;27.93;11.43;;;;;;;1.63;89.01;99787.63;4957648;29;20162;-61
2020/12/18 04:23:59;;;;;;;23.50;10.60;;;;;;;1.60;88.19;99787.53;4957072;29;20093;-62
2020/12/18 04:26:25;;;;;;;23.83;11.17;;;;;;;1.52;88.17;99783.88;4957014;28;20031;-62
2020/12/18 04:28:50;;;;;;;20.37;9.50;;;;;;;1.42;89.20;99791.94;4957379;29;20409;-60
2020/12/18 04:31:16;;;;;;;18.67;10.03;;;;;;;1.42;89.33;99791.94;4957535;29;20042;-60
2020/12/18 04:33:42;;;;;;;24.23;10.03;;;;;;;1.47;89.55;99792.97;4958270;29;20027;-61
2020/12/18 04:36:08;;;;;;;35.33;10.97;;;;;;;1.28;89.17;99788.91;4957009;29;20042;-61
2020/12/18 04:38:33;;;;;;;18.43;9.50;;;;;;;1.32;89.12;99790.72;4957511;29;20031;-62
2020/12/18 04:40:59;;;;;;;20.87;10.50;;;;;;;1.33;89.11;99787.41;4957857;29;20027;-62
2020/12/18 04:43:24;;;;;;;20.60;10.03;;;;;;;1.38;89.07;99793.50;4957172;29;20061;-61
2020/12/18 04:45:56;;;;;;;20.50;11.20;;;;;;;1.37;89.28;99799.34;4957194;29;20042;-60
2020/12/18 04:48:25;;;;;;;26.07;13.27;;;;;;;1.36;89.59;99805.19;4957107;29;20031;-60
2020/12/18 04:50:50;;;;;;;24.53;12.73;;;;;;;1.30;89.08;99799.06;4957227;29;20456;-61
2020/12/18 04:53:25;;;;;;;21.13;9.93;;;;;;;1.36;89.00;99810.25;4956976;29;20110;-60
2020/12/18 04:55:53;;;;;;;15.10;7.85;;;;;;;1.33;88.91;99809.28;4957483;29;20038;-60
2020/12/18 04:58:21;;;;;;;17.07;8.77;;;;;;;1.34;88.78;99808.47;4956979;29;20090;-61
2020/12/18 05:00:47;;;;;;;16.73;8.13;;;;;;;1.42;88.17;99807.09;4957123;29;20039;-61
2020/12/18 05:03:17;;;;;;;15.03;9.00;;;;;;;1.46;88.51;99808.91;4956887;29;20046;-60
2020/12/18 05:05:42;;;;;;;15.70;9.27;;;;;;;1.42;88.14;99814.66;4956851;29;20475;-61
2020/12/18 05:08:08;;;;;;;16.73;8.50;;;;;;;1.43;88.60;99818.91;4956802;29;20038;-62
2020/12/18 05:10:33;;;;;;;15.60;8.20;;;;;;;1.43;88.02;99820.59;4956739;29;20045;-62
2020/12/18 05:12:58;;;;;;;32.63;23.40;;;;;;;1.43;88.38;99811.34;4956421;29;20168;-61
2020/12/18 05:15:24;;;;;;;19.67;11.00;;;;;;;1.23;88.30;99807.25;4955886;29;20027;-61
2020/12/18 05:17:55;;;;;;;15.27;8.60;;;;;;;1.35;88.42;99822.84;4956787;29;20037;-62
2020/12/18 05:20:23;;;;;;;17.57;7.80;;;;;;;1.38;88.37;99825.47;4956687;29;20023;-62
2020/12/18 05:22:51;;;;;;;17.10;9.07;;;;;;;1.33;87.84;99826.97;4956879;29;20086;-61
2020/12/18 05:25:18;;;;;;;17.93;9.30;;;;;;;1.36;88.05;99827.06;4956839;29;20086;-61
2020/12/18 05:27:43;;;;;;;17.03;9.17;;;;;;;1.24;88.12;99819.03;4939409;29;20031;-61
2020/12/18 05:30:09;;;;;;;14.90;8.67;;;;;;;1.30;88.44;99822.66;4955838;29;20452;-61
2020/12/18 05:32:35;;;;;;;18.53;8.77;;;;;;;1.24;88.57;99824.09;4956523;29;20031;-61
2020/12/18 05:35:00;;;;;;;18.93;9.33;;;;;;;1.14;88.44;99827.09;4956849;29;20058;-61
2020/12/18 05:37:35;;;;;;;15.73;7.93;;;;;;;1.20;88.73;99835.75;4956795;29;20024;-61
2020/12/18 05:40:01;;;;;;;16.42;9.57;;;;;;;1.12;88.45;99836.25;4956279;29;20046;-62
2020/12/18 05:42:26;;;;;;;17.67;9.90;;;;;;;1.12;88.48;99836.25;4956152;29;20111;-61
2020/12/18 05:44:51;;;;;;;16.63;9.20;;;;;;;1.12;88.59;99841.31;4956346;29;20356;-61
2020/12/18 05:47:17;;;;;;;16.63;8.93;;;;;;;1.15;88.29;99836.38;4956404;29;20031;-60
2020/12/18 05:49:42;;;;;;;14.23;8.57;;;;;;;1.17;87.99;99838.16;4956407;29;20031;-60
2020/12/18 05:52:17;;;;;;;16.03;8.73;;;;;;;1.26;88.44;99845.22;4956502;29;20094;-60
2020/12/18 05:54:42;;;;;;;14.48;8.02;;;;;;;1.13;88.01;99841.38;4956453;29;20344;-60
2020/12/18 05:57:13;;;;;;;16.27;9.23;;;;;;;1.21;87.63;99837.47;4956392;29;20035;-61
2020/12/18 05:59:46;;;;;;;15.57;8.27;;;;;;;1.25;87.52;99843.50;4955980;29;20019;-61
2020/12/18 06:02:14;;;;;;;14.60;7.67;;;;;;;1.10;87.75;99843.81;4956134;29;20109;-60
2020/12/18 06:04:40;;;;;;;15.30;7.80;;;;;;;0.99;88.29;99846.69;4956461;29;20452;-61
2020/12/18 06:07:06;;;;;;;15.97;8.20;;;;;;;1.07;88.27;99848.72;4956212;29;20182;-61
2020/12/18 06:09:31;;;;;;;13.40;7.60;;;;;;;1.05;87.53;99849.47;4956446;29;20489;-61
2020/12/18 06:11:58;;;;;;;14.63;7.97;;;;;;;1.07;87.74;99855.44;4956066;29;20023;-61
2020/12/18 06:14:23;;;;;;;13.30;8.10;;;;;;;1.10;87.97;99853.03;4955472;29;20059;-61
2020/12/18 06:16:53;;;;;;;74.63;39.43;;;;;;;1.18;87.45;99857.56;4956040;29;20031;-60
2020/12/18 06:19:21;;;;;;;35.00;20.47;;;;;;;1.20;87.83;99855.09;4955988;29;20038;-60
2020/12/18 06:21:53;;;;;;;19.60;12.07;;;;;;;1.28;87.41;99862.16;4956269;29;20029;-62
2020/12/18 06:24:18;;;;;;;20.93;11.60;;;;;;;1.29;87.18;99865.53;4955953;29;20024;-61
2020/12/18 06:26:54;;;;;;;16.47;10.47;;;;;;;1.38;87.29;99870.94;4955097;29;20118;-61
2020/12/18 06:29:22;;;;;;;14.00;8.65;;;;;;;1.41;86.78;99873.56;4956485;28;20036;-60
2020/12/18 06:31:48;;;;;;;13.80;8.50;;;;;;;1.24;86.72;99864.50;4955911;29;20483;-60
2020/12/18 06:34:42;;;;;;;15.00;8.53;;;;;;;1.35;87.28;99858.22;4955762;29;20019;-60
2020/12/18 06:37:08;;;;;;;18.20;10.83;;;;;;;1.38;87.17;99860.84;4939129;29;20047;-60
2020/12/18 06:39:35;;;;;;;17.00;10.23;;;;;;;1.40;87.00;99865.97;4956159;29;20026;-60
2020/12/18 06:42:27;;;;;;;15.40;8.40;;;;;;;1.46;87.15;99863.63;4955697;29;20031;-60
2020/12/18 06:44:57;;;;;;;12.53;7.57;;;;;;;1.37;87.14;99859.97;4946820;28;20460;-60
2020/12/18 06:47:25;;;;;;;16.03;8.93;;;;;;;1.23;87.62;99866.16;4951679;28;20027;-60
2020/12/18 06:50:11;;;;;;;15.83;8.90;;;;;;;1.38;87.64;99864.22;4945768;28;20034;-60
2020/12/18 06:52:45;;;;;;;16.98;10.20;;;;;;;1.44;87.55;99858.53;4944286;28;20091;-61
2020/12/18 06:55:25;;;;;;;16.07;9.07;;;;;;;1.53;87.63;99861.38;4943993;28;20051;-62
2020/12/18 06:58:09;;;;;;;16.00;9.17;;;;;;;1.57;87.59;99865.75;4933038;29;20107;-60
2020/12/18 07:00:59;;;;;;;13.30;8.40;;;;;;;1.65;87.15;99866.03;4941981;28;20037;-61
2020/12/18 07:03:32;;;;;;;16.87;9.73;;;;;;;1.65;86.73;99861.84;4944949;28;20106;-60
2020/12/18 07:06:02;;;;;;;17.50;10.77;;;;;;;1.64;86.65;99872.75;4946219;28;20035;-61
2020/12/18 07:08:30;;;;;;;16.40;8.87;;;;;;;1.69;86.52;99881.38;4955285;28;20114;-61
2020/12/18 07:11:00;;;;;;;15.30;9.43;;;;;;;1.76;86.35;99870.66;4949745;28;20026;-61
2020/12/18 07:13:27;;;;;;;16.93;10.33;;;;;;;1.76;85.93;99877.38;4946709;28;20110;-60
2020/12/18 07:15:53;;;;;;;15.93;9.93;;;;;;;1.73;85.76;99879.81;4945858;28;20046;-60
2020/12/18 07:18:22;;;;;;;17.93;11.07;;;;;;;1.76;85.51;99879.91;4959362;28;20452;-60
2020/12/18 07:20:59;;;;;;;24.37;12.00;;;;;;;1.76;85.48;99877.38;4950244;28;20079;-60
2020/12/18 07:23:26;;;;;;;18.10;8.97;;;;;;;1.74;85.49;99877.31;4940563;29;20114;-60
2020/12/18 07:25:53;;;;;;;12.83;8.10;;;;;;;1.73;85.80;99878.16;4951067;28;20063;-60
2020/12/18 07:28:19;;;;;;;17.30;9.53;;;;;;;1.79;84.97;99874.97;4956614;28;20122;-59
2020/12/18 07:30:47;;;;;;;13.87;9.07;;;;;;;1.68;85.06;99884.69;4953979;28;20082;-59
2020/12/18 07:33:14;;;;;;;14.90;7.93;;;;;;;1.67;85.33;99885.50;4956282;28;20050;-59
2020/12/18 07:35:46;;;;;;;13.23;8.40;;;;;;;1.54;85.71;99890.91;4947755;28;20102;-59
2020/12/18 07:38:14;;;;;;;11.33;7.37;;;;;;;1.60;85.55;99897.88;4945077;28;20039;-61
2020/12/18 07:40:40;;;;;;;12.33;7.63;;;;;;;1.46;85.37;99889.78;4946882;28;20058;-60
2020/12/18 07:43:07;;;;;;;13.03;6.97;;;;;;;1.42;86.69;99894.66;4950817;28;20118;-60
2020/12/18 07:45:36;;;;;;;14.73;8.33;;;;;;;1.45;86.20;99898.16;4951146;28;20018;-61
2020/12/18 07:48:08;;;;;;;13.37;7.80;;;;;;;1.55;86.08;99896.81;4951525;28;20374;-63
2020/12/18 07:50:33;;;;;;;13.17;7.43;;;;;;;1.55;85.92;99897.69;4949834;28;20476;-60
2020/12/18 07:53:06;;;;;;;14.63;7.80;;;;;;;1.62;85.48;99894.56;4947405;28;20028;-60
2020/12/18 07:55:31;;;;;;;11.60;7.80;;;;;;;1.61;85.66;99899.59;4951532;28;20027;-61
2020/12/18 07:57:56;;;;;;;13.60;7.97;;;;;;;1.62;85.80;99892.06;4953533;28;20349;-62
2020/12/18 08:00:22;;;;;;;14.80;8.53;;;;;;;1.69;85.28;99888.09;4953267;28;20088;-61
2020/12/18 08:02:48;;;;;;;13.57;8.47;;;;;;;1.85;85.07;99890.38;4950269;28;20043;-62
2020/12/18 08:05:19;;;;;;;15.03;8.13;;;;;;;2.02;84.41;99893.47;4947733;28;20046;-61
2020/12/18 08:07:45;;;;;;;13.77;7.57;;;;;;;1.88;84.56;99892.13;4952400;29;20035;-61
2020/12/18 08:10:12;;;;;;;13.37;7.80;;;;;;;1.80;84.19;99890.19;4952099;28;20086;-61
2020/12/18 08:12:40;;;;;;;31.53;13.37;;;;;;;1.95;83.24;99894.09;4948250;28;20055;-61
2020/12/18 08:15:15;;;;;;;44.00;15.77;;;;;;;1.95;82.71;99902.53;4954863;29;20106;-61
2020/12/18 08:17:41;;;;;;;;;;;;;;;1.97;82.94;99902.56;4953923;29;20051;-60
2020/12/18 08:20:11;;;;;;;31.80;15.27;;;;;;;2.06;82.93;99897.84;4948301;28;19914;-61
2020/12/18 08:22:43;;;;;;;22.43;11.77;;;;;;;1.84;83.14;99899.59;4955600;28;20030;-62
2020/12/18 08:25:10;;;;;;;17.70;10.10;;;;;;;1.77;84.24;99896.81;4964562;28;20026;-60
2020/12/18 08:27:44;;;;;;;16.57;9.07;;;;;;;1.69;84.44;99894.00;4947855;29;20090;-62
2020/12/18 08:30:10;;;;;;;15.48;9.40;;;;;;;1.67;83.85;99894.75;4956981;29;20030;-60
2020/12/18 08:32:38;;;;;;;14.93;9.20;;;;;;;1.72;83.36;99898.31;4955622;29;20039;-60
2020/12/18 08:35:06;;;;;;;16.60;9.33;;;;;;;1.78;84.04;99896.84;4956463;28;20294;-60
2020/12/18 08:37:32;;;;;;;15.60;8.77;;;;;;;1.87;83.42;99896.31;4956680;29;20039;-60
2020/12/18 08:39:58;;;;;;;20.83;9.67;;;;;;;1.80;84.38;99899.44;4955747;29;20038;-59
2020/12/18 08:42:23;;;;;;;20.30;10.43;;;;;;;1.96;83.80;99905.91;4955615;28;21759;-61
2020/12/18 08:44:49;;;;;;;24.47;10.77;;;;;;;1.89;84.53;99903.97;4956230;29;20043;-60
2020/12/18 08:47:28;;;;;;;19.90;11.50;;;;;;;1.93;84.89;99903.28;4954026;28;20062;-60
2020/12/18 08:49:55;;;;;;;26.03;11.67;;;;;;;2.05;84.59;99909.63;4954171;29;20216;-61
2020/12/18 08:52:26;;;;;;;24.07;11.17;;;;;;;2.23;84.30;99905.22;4955415;28;20086;-62
2020/12/18 08:55:04;;;;;;;32.60;14.63;;;;;;;2.39;83.46;99910.78;4956593;29;20031;-62
2020/12/18 08:57:31;;;;;;;26.77;12.87;;;;;;;2.49;83.82;99908.63;4954333;28;20121;-62
2020/12/18 09:00:09;;;;;;;23.83;12.07;;;;;;;2.47;83.12;99914.44;4957116;28;20042;-61
2020/12/18 09:02:58;;;;;;;25.07;12.60;;;;;;;2.69;83.12;99920.25;4955779;29;20043;-61
2020/12/18 09:05:25;;;;;;;21.67;12.53;;;;;;;2.83;82.73;99920.72;4952994;28;20073;-62
2020/12/18 09:08:01;;;;;;;20.07;11.30;;;;;;;2.92;81.24;99922.69;4956426;29;20043;-61
2020/12/18 09:10:43;;;;;;;;;;;;;;;2.84;80.95;99924.97;4954427;28;20038;-62
2020/12/18 09:13:14;;;;;;;27.10;12.23;;;;;;;2.58;81.93;99928.31;4954487;28;19922;-61
2020/12/18 09:15:47;;;;;;;25.03;13.00;;;;;;;2.42;83.30;99926.91;4953093;28;20031;-61
2020/12/18 09:18:20;;;;;;;27.10;13.23;;;;;;;2.68;83.02;99925.25;4954711;29;20074;-61
2020/12/18 09:20:46;;;;;;;21.20;12.23;;;;;;;2.76;82.45;99926.38;4954935;28;20058;-61
2020/12/18 09:23:16;;;;;;;23.50;12.80;;;;;;;2.86;82.90;99919.94;4955245;28;20030;-61
2020/12/18 09:25:43;;;;;;;26.27;13.03;;;;;;;2.74;82.41;99920.41;4959040;28;20046;-61
2020/12/18 09:28:11;;;;;;;27.53;12.43;;;;;;;2.59;83.13;99917.41;4956084;28;20019;-61
2020/12/18 09:30:37;;;;;;;28.40;13.33;;;;;;;2.60;84.02;99919.09;4955017;28;20111;-61
2020/12/18 09:33:09;;;;;;;25.20;11.77;;;;;;;2.82;83.16;99924.06;4956022;28;20046;-61
2020/12/18 09:35:35;;;;;;;23.43;12.33;;;;;;;2.76;82.65;99919.63;4955075;28;20034;-61
2020/12/18 09:38:00;;;;;;;31.90;16.47;;;;;;;2.15;84.75;99921.78;4956173;28;20042;-61
2020/12/18 09:40:26;;;;;;;29.03;13.17;;;;;;;2.29;84.99;99917.22;4953883;28;20030;-61
2020/12/18 09:42:51;;;;;;;29.50;14.27;;;;;;;2.57;84.39;99917.34;4955227;29;20031;-61
2020/12/18 09:45:16;;;;;;;23.37;14.93;;;;;;;2.64;82.87;99908.25;4937222;28;20027;-61
2020/12/18 09:47:42;;;;;;;21.20;12.60;;;;;;;2.76;83.05;99914.56;4955920;29;20027;-61
2020/12/18 09:50:07;;;;;;;24.93;12.47;;;;;;;2.90;83.16;99901.50;4953208;28;20034;-61
2020/12/18 09:52:33;;;;;;;22.83;13.10;;;;;;;2.94;81.87;99908.38;4955539;29;20027;-60
2020/12/18 09:54:58;;;;;;;24.07;11.83;;;;;;;3.06;81.46;99908.75;4953656;29;20466;-60
2020/12/18 09:57:25;;;;;;;27.40;12.33;;;;;;;3.04;81.99;99903.66;4951290;28;20098;-59
2020/12/18 09:59:51;;;;;;;21.47;12.43;;;;;;;3.11;82.04;99897.09;4953846;29;20035;-60
2020/12/18 10:02:16;;;;;;;24.43;12.23;;;;;;;3.10;82.23;99893.72;4953040;28;20039;-60
2020/12/18 10:04:42;;;;;;;25.37;14.20;;;;;;;3.23;81.65;99890.75;4954287;29;20031;-60
2020/12/18 10:07:07;;;;;;;20.70;12.53;;;;;;;3.27;81.21;99891.69;4953728;28;20326;-60
2020/12/18 10:09:32;;;;;;;26.43;12.77;;;;;;;3.31;80.53;99893.50;4956297;29;20027;-60
2020/12/18 10:11:59;;;;;;;25.70;12.57;;;;;;;3.28;80.66;99892.56;4954261;28;20035;-60
2020/12/18 10:14:25;;;;;;;16.70;10.77;;;;;;;3.07;81.39;99887.69;4952963;29;20122;-61
2020/12/18 10:16:50;;;;;;;19.90;11.10;;;;;;;3.29;81.37;99887.53;4951833;28;20043;-60
2020/12/18 10:19:16;;;;;;;16.67;10.30;;;;;;;3.36;80.59;99884.38;4953747;29;20027;-62
2020/12/18 10:21:41;;;;;;;20.77;11.97;;;;;;;3.48;80.51;99894.84;4943919;28;20515;-61
2020/12/18 10:24:06;;;;;;;19.90;12.43;;;;;;;3.54;79.60;99882.38;4949682;28;20035;-61
2020/12/18 10:26:32;;;;;;;18.70;10.73;;;;;;;3.60;79.55;99881.69;4952828;28;20054;-63
2020/12/18 10:28:57;;;;;;;19.17;11.13;;;;;;;3.61;80.10;99878.31;4950535;28;20063;-62
2020/12/18 10:31:23;;;;;;;21.37;11.70;;;;;;;3.46;79.47;99880.44;4945913;28;20112;-62
2020/12/18 10:33:48;;;;;;;18.70;10.10;;;;;;;3.56;79.57;99880.75;4948748;28;20042;-61
2020/12/18 10:36:14;;;;;;;25.67;13.23;;;;;;;3.64;79.87;99879.31;4950649;28;20103;-62
2020/12/18 10:38:40;;;;;;;44.73;22.13;;;;;;;3.64;79.19;99874.22;4951344;28;20027;-61
2020/12/18 10:41:05;;;;;;;21.40;12.53;;;;;;;3.15;80.95;99873.59;4955309;28;20038;-62
2020/12/18 10:43:30;;;;;;;21.43;12.60;;;;;;;3.10;81.38;99882.72;4950970;28;20039;-61
2020/12/18 10:45:56;;;;;;;23.40;12.67;;;;;;;2.73;82.48;99875.66;4957907;28;20035;-61
2020/12/18 10:48:21;;;;;;;23.80;12.63;;;;;;;2.59;83.67;99879.44;4953299;28;20142;-61
2020/12/18 10:50:46;;;;;;;28.37;14.27;;;;;;;2.50;84.66;99876.59;4945971;28;20035;-62
2020/12/18 10:53:12;;;;;;;26.27;13.30;;;;;;;2.40;85.32;99872.03;4944079;28;20090;-62
2020/12/18 10:55:37;;;;;;;23.20;12.83;;;;;;;2.61;84.85;99873.59;4944626;28;20436;-62
2020/12/18 10:58:03;;;;;;;21.70;13.13;;;;;;;2.89;84.16;99870.25;4944480;28;20076;-62
2020/12/18 11:00:28;;;;;;;23.00;12.90;;;;;;;3.17;83.61;99866.91;4953856;28;20042;-62
2020/12/18 11:02:53;;;;;;;24.27;14.13;;;;;;;3.38;82.60;99859.06;4954935;28;20336;-62
2020/12/18 11:05:19;;;;;;;20.63;11.97;;;;;;;3.57;81.62;99869.78;4939612;29;20063;-62
2020/12/18 11:07:44;;;;;;;19.20;11.67;;;;;;;3.64;81.03;99871.69;4949262;29;20031;-62
2020/12/18 11:10:09;;;;;;;19.50;11.30;;;;;;;3.69;79.83;99869.28;4951812;29;20075;-62
2020/12/18 11:12:35;;;;;;;18.70;10.73;;;;;;;3.74;79.85;99866.84;4957067;28;20356;-62
2020/12/18 11:15:00;;;;;;;21.27;12.27;;;;;;;3.79;78.91;99862.78;4956370;28;20039;-62
2020/12/18 11:17:27;;;;;;;22.97;12.77;;;;;;;3.60;79.17;99857.22;4956868;28;20038;-62
2020/12/18 11:19:53;;;;;;;20.27;11.13;;;;;;;3.73;79.40;99860.09;4964818;28;20106;-63
2020/12/18 11:22:18;;;;;;;16.87;10.13;;;;;;;3.66;79.19;99859.91;4957958;29;20465;-62
2020/12/18 11:24:44;;;;;;;17.43;10.73;;;;;;;3.73;79.09;99853.34;4955853;28;20102;-62
2020/12/18 11:27:10;;;;;;;20.50;11.90;;;;;;;3.77;79.27;99846.66;4958379;29;20053;-62
2020/12/18 11:29:36;;;;;;;19.93;12.70;;;;;;;3.74;79.89;99844.91;4953055;28;20415;-62